createdAt,value
2023-02-12T00:01:27.157Z,13.55
2023-02-12T00:03:54.557Z,12.63
2023-02-12T00:06:21.389Z,13.02
2023-02-12T00:08:54.537Z,12.68
2023-02-12T00:11:25.983Z,10.93
2023-02-12T00:13:54.339Z,12.65
2023-02-12T00:16:26.327Z,12.38
2023-02-12T00:18:56.424Z,12.93
2023-02-12T00:21:23.999Z,13.25
2023-02-12T00:23:50.944Z,12.82
2023-02-12T00:26:21.166Z,13.25
2023-02-12T00:31:25.823Z,13.65
2023-02-12T00:33:53.471Z,12.80
2023-02-12T00:36:24.626Z,13.40
2023-02-12T00:38:54.229Z,12.55
2023-02-12T00:41:23.462Z,12.95
2023-02-12T00:43:50.978Z,12.95
2023-02-12T00:46:18.453Z,12.35
2023-02-12T00:48:45.583Z,13.63
2023-02-12T00:51:12.543Z,13.52
2023-02-12T00:53:39.419Z,13.60
2023-02-12T00:56:08.092Z,13.68
2023-02-12T00:58:35.442Z,13.40
2023-02-12T01:01:02.312Z,12.80
2023-02-12T01:03:29.148Z,13.15
2023-02-12T01:05:57.700Z,12.85
2023-02-12T01:08:25.098Z,12.77
2023-02-12T01:11:02.635Z,12.65
2023-02-12T01:13:32.290Z,12.68
2023-02-12T01:16:18.809Z,13.57
2023-02-12T01:18:46.508Z,12.60
2023-02-12T01:21:20.422Z,13.02
2023-02-12T01:23:48.061Z,14.25
2023-02-12T01:26:17.986Z,12.05
2023-02-12T01:28:50.916Z,13.38
2023-02-12T01:31:22.464Z,13.15
2023-02-12T01:33:54.068Z,12.95
2023-02-12T01:36:22.327Z,12.63
2023-02-12T01:38:50.173Z,11.77
2023-02-12T01:41:24.516Z,12.15
2023-02-12T01:44:15.523Z,12.60
2023-02-12T01:46:45.185Z,12.20
2023-02-12T01:49:33.224Z,12.88
2023-02-12T01:52:28.646Z,12.02
2023-02-12T01:55:02.798Z,11.45
2023-02-12T01:57:34.530Z,14.07
2023-02-12T02:00:09.301Z,12.20
2023-02-12T02:02:45.062Z,12.18
2023-02-12T02:05:23.356Z,12.57
2023-02-12T02:07:50.438Z,12.55
2023-02-12T02:10:17.536Z,12.85
2023-02-12T02:13:02.832Z,13.15
2023-02-12T02:15:32.516Z,12.10
2023-02-12T02:18:27.393Z,12.02
2023-02-12T02:21:34.527Z,12.18
2023-02-12T02:24:56.692Z,11.88
2023-02-12T02:27:36.055Z,11.60
2023-02-12T02:30:24.781Z,12.95
2023-02-12T02:33:21.881Z,12.82
2023-02-12T02:36:13.088Z,12.35
2023-02-12T02:42:06.941Z,11.80
2023-02-12T02:44:50.759Z,12.68
2023-02-12T02:47:24.112Z,12.77
2023-02-12T02:49:58.954Z,11.30
2023-02-12T02:52:39.061Z,12.45
2023-02-12T02:55:11.445Z,13.25
2023-02-12T02:57:57.114Z,12.32
2023-02-12T03:00:38.820Z,10.75
2023-02-12T03:03:33.532Z,8.32
2023-02-12T03:06:09.708Z,10.55
2023-02-12T03:08:50.108Z,10.43
2023-02-12T03:11:27.189Z,10.63
2023-02-12T03:14:13.297Z,9.55
2023-02-12T03:17:13.026Z,10.98
2023-02-12T03:19:51.828Z,11.55
2023-02-12T03:22:33.195Z,11.35
2023-02-12T03:25:14.733Z,11.10
2023-02-12T03:27:52.970Z,8.63
2023-02-12T03:30:21.950Z,7.95
2023-02-12T03:33:04.508Z,7.32
2023-02-12T03:35:57.710Z,11.40
2023-02-12T03:38:39.840Z,7.75
2023-02-12T03:41:15.127Z,7.82
2023-02-12T03:43:50.981Z,11.18
2023-02-12T03:46:32.566Z,8.95
2023-02-12T03:49:10.047Z,9.38
2023-02-12T03:51:42.650Z,7.88
2023-02-12T03:54:16.191Z,11.10
2023-02-12T03:56:52.248Z,10.50
2023-02-12T03:59:22.128Z,9.68
2023-02-12T04:01:54.202Z,11.05
2023-02-12T04:04:23.034Z,11.10
2023-02-12T04:06:52.509Z,9.90
2023-02-12T04:09:21.905Z,10.50
2023-02-12T04:12:14.542Z,10.32
2023-02-12T04:14:54.951Z,11.25
2023-02-12T04:17:36.434Z,12.50
2023-02-12T04:20:12.969Z,11.93
2023-02-12T04:23:04.012Z,11.68
2023-02-12T04:25:58.458Z,11.38
2023-02-12T04:28:52.044Z,12.18
2023-02-12T04:32:09.321Z,11.20
2023-02-12T04:34:53.243Z,11.68
2023-02-12T04:37:30.261Z,10.95
2023-02-12T04:40:00.601Z,9.25
2023-02-12T04:42:27.467Z,9.40
2023-02-12T04:44:54.478Z,10.70
2023-02-12T04:47:21.265Z,6.40
2023-02-12T04:49:48.067Z,10.32
2023-02-12T04:52:14.972Z,11.00
2023-02-12T04:54:41.839Z,11.65
2023-02-12T04:57:09.414Z,12.20
2023-02-12T04:59:36.232Z,11.40
2023-02-12T05:02:03.146Z,11.02
2023-02-12T05:04:30.036Z,12.57
2023-02-12T05:06:56.837Z,12.02
2023-02-12T05:09:23.673Z,12.23
2023-02-12T05:11:50.497Z,12.07
2023-02-12T05:14:17.319Z,12.50
2023-02-12T05:16:44.145Z,12.73
2023-02-12T05:19:11.104Z,11.60
2023-02-12T05:21:38.588Z,13.23
2023-02-12T05:24:06.051Z,11.80
2023-02-12T05:26:33.036Z,12.10
2023-02-12T05:28:59.855Z,12.25
2023-02-12T05:31:27.390Z,11.57
2023-02-12T05:33:54.564Z,11.65
2023-02-12T05:36:24.422Z,11.73
2023-02-12T05:38:53.281Z,11.35
2023-02-12T05:41:24.829Z,11.57
2023-02-12T05:43:52.863Z,12.18
2023-02-12T05:46:21.999Z,11.40
2023-02-12T05:48:49.434Z,11.68
2023-02-12T05:51:22.101Z,10.57
2023-02-12T05:53:51.851Z,11.55
2023-02-12T05:56:26.007Z,11.32
2023-02-12T05:59:02.213Z,11.00
2023-02-12T06:01:42.364Z,11.05
2023-02-12T06:04:16.700Z,11.73
2023-02-12T06:06:44.285Z,12.82
2023-02-12T06:09:13.470Z,11.73
2023-02-12T06:11:40.888Z,11.55
2023-02-12T06:14:13.032Z,11.63
2023-02-12T06:16:40.398Z,12.05
2023-02-12T06:19:07.728Z,12.05
2023-02-12T06:21:34.690Z,12.48
2023-02-12T06:24:01.962Z,11.43
2023-02-12T06:26:29.160Z,12.48
2023-02-12T06:28:55.981Z,11.52
2023-02-12T06:31:33.118Z,12.52
2023-02-12T06:34:04.839Z,11.68
2023-02-12T06:36:32.390Z,11.68
2023-02-12T06:39:02.734Z,12.15
2023-02-12T06:41:29.649Z,12.70
2023-02-12T06:43:56.471Z,11.57
2023-02-12T06:46:23.544Z,13.38
2023-02-12T06:48:55.482Z,13.02
2023-02-12T06:51:23.598Z,13.20
2023-02-12T06:53:52.977Z,12.45
2023-02-12T06:56:22.365Z,11.48
2023-02-12T06:58:58.338Z,12.55
2023-02-12T07:01:29.407Z,11.85
2023-02-12T07:04:02.870Z,11.80
2023-02-12T07:06:33.374Z,11.85
2023-02-12T07:09:00.476Z,12.13
2023-02-12T07:11:36.160Z,12.25
2023-02-12T07:14:05.166Z,13.40
2023-02-12T07:16:32.296Z,12.23
2023-02-12T07:18:59.227Z,11.55
2023-02-12T07:21:26.114Z,10.23
2023-02-12T07:23:54.198Z,9.27
2023-02-12T07:26:22.290Z,10.15
2023-02-12T07:28:52.794Z,11.35
2023-02-12T07:31:23.228Z,10.90
2023-02-12T07:33:56.095Z,10.80
2023-02-12T07:36:24.577Z,11.65
2023-02-12T07:38:52.006Z,12.20
2023-02-12T07:41:31.374Z,12.55
2023-02-12T07:44:03.751Z,11.40
2023-02-12T07:46:35.235Z,11.55
2023-02-12T07:49:07.023Z,11.60
2023-02-12T07:51:35.508Z,11.52
2023-02-12T07:54:03.663Z,11.00
2023-02-12T07:56:35.423Z,11.07
2023-02-12T07:59:06.690Z,11.55
2023-02-12T08:01:38.022Z,11.05
2023-02-12T08:04:15.437Z,11.60
2023-02-12T08:06:46.852Z,10.98
2023-02-12T08:09:19.442Z,10.75
2023-02-12T08:11:46.390Z,11.48
2023-02-12T08:14:16.788Z,11.05
2023-02-12T08:16:45.741Z,10.73
2023-02-12T08:19:20.906Z,11.35
2023-02-12T08:21:54.957Z,11.15
2023-02-12T08:24:22.446Z,10.85
2023-02-12T08:26:50.268Z,11.35
2023-02-12T08:29:21.460Z,11.98
2023-02-12T08:31:51.110Z,11.15
2023-02-12T08:34:49.385Z,11.13
2023-02-12T08:37:16.186Z,10.25
2023-02-12T08:39:43.228Z,11.30
2023-02-12T08:42:10.386Z,11.52
2023-02-12T08:44:37.279Z,11.63
2023-02-12T08:47:05.956Z,10.85
2023-02-12T08:49:32.786Z,10.48
2023-02-12T08:52:01.892Z,11.00
2023-02-12T08:54:31.515Z,11.85
2023-02-12T08:57:02.057Z,10.23
2023-02-12T08:59:29.708Z,11.13
2023-02-12T09:01:56.771Z,10.93
2023-02-12T09:04:28.592Z,10.13
2023-02-12T09:06:55.979Z,10.50
2023-02-12T09:09:23.392Z,12.18
2023-02-12T09:11:50.800Z,11.48
2023-02-12T09:14:23.587Z,11.30
2023-02-12T09:16:53.091Z,11.05
2023-02-12T09:19:20.739Z,12.50
2023-02-12T09:21:56.466Z,11.23
2023-02-12T09:24:27.675Z,10.93
2023-02-12T09:26:54.978Z,12.07
2023-02-12T09:29:22.444Z,11.95
2023-02-12T09:31:49.577Z,11.35
2023-02-12T09:34:16.727Z,11.68
2023-02-12T09:36:43.523Z,12.10
2023-02-12T09:39:10.363Z,11.63
2023-02-12T09:42:07.882Z,11.00
2023-02-12T09:45:09.994Z,12.18
2023-02-12T09:47:45.032Z,12.10
2023-02-12T09:50:42.864Z,12.60
2023-02-12T09:53:16.988Z,11.18
2023-02-12T09:55:43.971Z,12.25
2023-02-12T09:58:22.160Z,11.77
2023-02-12T10:00:49.067Z,12.27
2023-02-12T10:03:18.402Z,12.57
2023-02-12T10:05:53.676Z,13.65
2023-02-12T10:08:47.249Z,13.38
2023-02-12T10:11:36.673Z,12.88
2023-02-12T10:14:15.437Z,11.73
2023-02-12T10:16:57.671Z,12.25
2023-02-12T10:20:01.358Z,12.30
2023-02-12T10:23:15.026Z,11.57
2023-02-12T10:25:54.510Z,12.27
2023-02-12T10:28:34.690Z,12.00
2023-02-12T10:31:06.490Z,12.23
2023-02-12T10:33:51.174Z,11.77
2023-02-12T10:36:43.587Z,13.05
2023-02-12T10:39:10.325Z,12.20
2023-02-12T10:41:47.411Z,11.60
2023-02-12T10:44:14.284Z,12.02
2023-02-12T10:46:41.280Z,11.15
2023-02-12T10:49:15.373Z,10.73
2023-02-12T10:52:09.220Z,11.35
2023-02-12T10:54:38.366Z,10.70
2023-02-12T10:57:13.182Z,11.43
2023-02-12T10:59:42.637Z,11.95
2023-02-12T11:02:29.531Z,11.85
2023-02-12T11:04:59.695Z,11.70
2023-02-12T11:07:28.713Z,11.68
2023-02-12T11:09:57.479Z,12.27
2023-02-12T11:12:42.494Z,11.85
2023-02-12T11:15:20.744Z,12.45
2023-02-12T11:18:19.657Z,12.13
2023-02-12T11:20:51.691Z,12.43
2023-02-12T11:23:50.950Z,11.68
2023-02-12T11:26:17.686Z,12.18
2023-02-12T11:29:17.185Z,12.48
2023-02-12T11:32:05.904Z,11.27
2023-02-12T11:34:32.852Z,11.20
2023-02-12T11:37:02.045Z,11.27
2023-02-12T11:39:30.398Z,11.20
2023-02-12T11:42:00.736Z,12.00
2023-02-12T11:44:35.220Z,11.75
2023-02-12T11:47:10.760Z,11.05
2023-02-12T11:50:22.103Z,12.63
2023-02-12T11:52:53.551Z,11.45
2023-02-12T11:55:26.164Z,12.85
2023-02-12T11:58:16.351Z,13.25
2023-02-12T12:00:43.125Z,12.35
2023-02-12T12:03:30.245Z,12.35
2023-02-12T12:06:13.117Z,12.27
2023-02-12T12:08:51.349Z,12.82
2023-02-12T12:11:27.042Z,12.65
2023-02-12T12:14:08.185Z,11.77
2023-02-12T12:17:06.445Z,12.85
2023-02-12T12:19:53.069Z,13.52
2023-02-12T12:22:27.668Z,11.70
2023-02-12T12:25:12.750Z,12.45
2023-02-12T12:28:03.600Z,11.90
2023-02-12T12:30:48.580Z,12.32
2023-02-12T12:33:55.477Z,11.95
2023-02-12T12:36:59.650Z,12.25
2023-02-12T12:40:07.420Z,12.63
2023-02-12T12:42:51.451Z,12.40
2023-02-12T12:45:53.580Z,11.00
2023-02-12T12:48:54.741Z,12.43
2023-02-12T12:51:44.251Z,11.30
2023-02-12T12:54:21.296Z,12.35
2023-02-12T12:57:11.584Z,12.18
2023-02-12T13:00:14.974Z,12.20
2023-02-12T13:03:25.594Z,12.35
2023-02-12T13:06:34.885Z,11.50
2023-02-12T13:09:16.903Z,12.55
2023-02-12T13:11:55.525Z,12.68
2023-02-12T13:14:47.399Z,12.27
2023-02-12T13:17:33.855Z,12.45
2023-02-12T13:20:12.377Z,11.77
2023-02-12T13:22:54.480Z,11.10
2023-02-12T13:25:34.566Z,11.77
2023-02-12T13:28:05.901Z,11.57
2023-02-12T13:30:48.391Z,11.50
2023-02-12T13:33:43.542Z,11.68
2023-02-12T13:36:14.618Z,11.05
2023-02-12T13:39:15.669Z,11.43
2023-02-12T13:41:58.012Z,12.00
2023-02-12T13:44:47.415Z,11.68
2023-02-12T13:47:32.445Z,12.18
2023-02-12T13:50:30.820Z,11.98
2023-02-12T13:53:16.940Z,12.52
2023-02-12T13:56:12.165Z,13.63
2023-02-12T13:58:40.287Z,11.80
2023-02-12T14:01:11.715Z,12.40
2023-02-12T14:03:39.651Z,11.88
2023-02-12T14:06:20.468Z,12.50
2023-02-12T14:08:54.501Z,11.73
2023-02-12T14:11:26.464Z,11.82
2023-02-12T14:14:01.484Z,12.73
2023-02-12T14:16:31.051Z,12.07
2023-02-12T14:19:39.865Z,10.40
2023-02-12T14:22:34.521Z,12.32
2023-02-12T14:25:26.084Z,10.63
2023-02-12T14:28:07.141Z,14.10
2023-02-12T14:30:41.147Z,11.95
2023-02-12T14:33:08.044Z,11.75
2023-02-12T14:35:41.851Z,13.25
2023-02-12T14:38:11.594Z,13.43
2023-02-12T14:40:45.371Z,11.88
2023-02-12T14:43:33.889Z,12.52
2023-02-12T14:46:39.420Z,12.43
2023-02-12T14:49:36.809Z,12.35
2023-02-12T14:52:17.108Z,12.02
2023-02-12T14:54:50.894Z,12.05
2023-02-12T14:57:29.088Z,12.35
2023-02-12T15:00:01.966Z,11.18
2023-02-12T15:02:34.889Z,11.63
2023-02-12T15:05:14.070Z,11.95
2023-02-12T15:07:47.257Z,12.32
2023-02-12T15:10:22.929Z,11.70
2023-02-12T15:13:23.510Z,12.43
2023-02-12T15:16:09.444Z,13.20
2023-02-12T15:19:01.431Z,11.93
2023-02-12T15:21:33.209Z,11.73
2023-02-12T15:24:23.249Z,12.30
2023-02-12T15:26:53.914Z,12.23
2023-02-12T15:29:29.970Z,12.40
2023-02-12T15:32:02.470Z,13.18
2023-02-12T15:34:35.435Z,13.07
2023-02-12T15:37:05.456Z,12.77
2023-02-12T15:39:44.118Z,11.93
2023-02-12T15:42:37.779Z,12.52
2023-02-12T15:45:10.585Z,12.85
2023-02-12T15:47:37.430Z,11.95
2023-02-12T15:50:04.692Z,13.85
2023-02-12T15:52:38.997Z,13.00
2023-02-12T15:55:16.298Z,11.93
2023-02-12T15:57:50.563Z,12.27
2023-02-12T16:00:35.805Z,12.52
2023-02-12T16:03:02.692Z,12.45
2023-02-12T16:05:31.746Z,11.27
2023-02-12T16:08:01.132Z,14.13
2023-02-12T16:10:28.188Z,11.40
2023-02-12T16:12:55.605Z,12.27
2023-02-12T16:15:34.875Z,12.32
2023-02-12T16:18:04.228Z,11.85
2023-02-12T16:20:32.311Z,11.65
2023-02-12T16:23:00.052Z,12.50
2023-02-12T16:25:33.588Z,13.60
2023-02-12T16:28:18.016Z,11.85
2023-02-12T16:30:48.382Z,11.75
2023-02-12T16:33:34.854Z,12.45
2023-02-12T16:36:15.215Z,12.30
2023-02-12T16:38:46.919Z,13.25
2023-02-12T16:41:26.129Z,12.18
2023-02-12T16:44:01.736Z,14.13
2023-02-12T16:46:45.857Z,14.02
2023-02-12T16:49:23.284Z,13.95
2023-02-12T16:51:52.283Z,13.30
2023-02-12T16:54:33.904Z,15.60
2023-02-12T16:57:02.142Z,15.63
2023-02-12T16:59:29.862Z,14.15
2023-02-12T17:02:03.963Z,13.45
2023-02-12T17:04:31.244Z,13.35
2023-02-12T17:06:58.190Z,12.98
2023-02-12T17:09:25.123Z,14.30
2023-02-12T17:11:51.921Z,12.77
2023-02-12T17:14:20.919Z,13.90
2023-02-12T17:16:49.042Z,13.85
2023-02-12T17:19:16.480Z,14.65
2023-02-12T17:21:49.350Z,14.30
2023-02-12T17:24:23.093Z,13.85
2023-02-12T17:26:51.565Z,22.17
2023-02-12T17:29:20.744Z,14.38
2023-02-12T17:31:48.152Z,18.90
2023-02-12T17:34:16.710Z,17.88
2023-02-12T17:36:43.623Z,15.63
2023-02-12T17:39:14.722Z,15.38
2023-02-12T17:41:44.090Z,15.43
2023-02-12T17:44:13.832Z,14.68
2023-02-12T17:46:41.222Z,14.50
2023-02-12T17:49:08.084Z,13.82
2023-02-12T17:51:34.965Z,14.23
2023-02-12T17:54:01.830Z,14.40
2023-02-12T17:56:28.845Z,14.27
2023-02-12T17:58:55.707Z,13.93
2023-02-12T18:01:24.143Z,13.68
2023-02-12T18:03:55.860Z,14.88
2023-02-12T18:06:29.388Z,14.13
2023-02-12T18:08:58.868Z,15.50
2023-02-12T18:11:27.674Z,15.05
2023-02-12T18:13:55.987Z,15.45
2023-02-12T18:16:32.786Z,14.98
2023-02-12T18:19:04.377Z,15.13
2023-02-12T18:21:31.721Z,14.15
2023-02-12T18:23:58.564Z,15.07
2023-02-12T18:26:25.403Z,13.98
2023-02-12T18:28:53.845Z,14.38
2023-02-12T18:31:21.108Z,15.00
2023-02-12T18:33:49.121Z,14.35
2023-02-12T18:36:19.860Z,15.65
2023-02-12T18:38:49.969Z,15.20
2023-02-12T18:41:26.746Z,16.20
2023-02-12T18:43:53.630Z,15.70
2023-02-12T18:46:25.945Z,14.65
2023-02-12T18:48:54.263Z,14.82
2023-02-12T18:51:28.571Z,15.35
2023-02-12T18:54:02.516Z,14.70
2023-02-12T18:56:33.252Z,14.93
2023-02-12T18:59:04.752Z,15.02
2023-02-12T19:01:33.093Z,15.05
2023-02-12T19:04:04.552Z,15.25
2023-02-12T19:06:37.682Z,14.63
2023-02-12T19:09:04.829Z,15.57
2023-02-12T19:11:32.777Z,14.43
2023-02-12T19:13:59.655Z,15.40
2023-02-12T19:16:27.341Z,16.17
2023-02-12T19:18:59.107Z,16.23
2023-02-12T19:21:26.410Z,15.43
2023-02-12T19:24:02.435Z,15.43
2023-02-12T19:26:31.146Z,13.98
2023-02-12T19:28:58.978Z,15.05
2023-02-12T19:31:33.316Z,13.85
2023-02-12T19:34:03.895Z,15.13
2023-02-12T19:36:35.356Z,14.82
2023-02-12T19:39:05.990Z,15.68
2023-02-12T19:41:41.010Z,15.45
2023-02-12T19:44:19.795Z,14.82
2023-02-12T19:49:22.325Z,15.82
2023-02-12T19:51:49.629Z,15.98
2023-02-12T19:54:19.013Z,15.40
2023-02-12T19:56:46.528Z,15.70
2023-02-12T19:59:17.354Z,15.23
2023-02-12T20:01:48.150Z,15.20
2023-02-12T20:04:18.717Z,15.85
2023-02-12T20:06:46.326Z,16.35
2023-02-12T20:09:13.968Z,17.35
2023-02-12T20:11:41.409Z,14.55
2023-02-12T20:14:11.924Z,15.05
2023-02-12T20:16:41.725Z,16.00
2023-02-12T20:19:16.226Z,16.38
2023-02-12T20:21:44.703Z,15.30
2023-02-12T20:24:11.920Z,16.77
2023-02-12T20:26:39.141Z,15.63
2023-02-12T20:29:06.137Z,17.20
2023-02-12T20:31:37.106Z,15.00
2023-02-12T20:34:08.313Z,16.02
2023-02-12T20:36:38.737Z,15.38
2023-02-12T20:39:08.984Z,15.35
2023-02-12T20:41:37.237Z,16.75
2023-02-12T20:44:13.134Z,14.70
2023-02-12T20:46:42.213Z,15.40
2023-02-12T20:49:13.010Z,16.90
2023-02-12T20:51:40.368Z,16.02
2023-02-12T20:54:07.297Z,15.50
2023-02-12T20:56:36.092Z,14.98
2023-02-12T20:59:05.720Z,15.93
2023-02-12T21:01:36.816Z,14.23
2023-02-12T21:04:09.169Z,16.25
2023-02-12T21:09:12.173Z,15.25
2023-02-12T21:11:42.159Z,16.08
2023-02-12T21:14:21.844Z,16.15
2023-02-12T21:16:51.120Z,16.65
2023-02-12T21:19:18.922Z,15.80
2023-02-12T21:21:46.264Z,14.65
2023-02-12T21:24:18.581Z,15.93
2023-02-12T21:29:12.137Z,16.52
2023-02-12T21:31:43.637Z,16.63
2023-02-12T21:34:15.709Z,16.15
2023-02-12T21:36:45.533Z,15.07
2023-02-12T21:39:24.334Z,15.13
2023-02-12T21:42:02.772Z,18.65
2023-02-12T21:44:35.256Z,20.70
2023-02-12T21:47:02.298Z,16.15
2023-02-12T21:49:29.143Z,16.40
2023-02-12T21:52:02.973Z,16.42
2023-02-12T21:54:30.813Z,15.60
2023-02-12T21:56:59.562Z,16.02
2023-02-12T21:59:26.968Z,17.02
2023-02-12T22:01:58.290Z,16.75
2023-02-12T22:04:25.699Z,16.23
2023-02-12T22:06:52.894Z,16.10
2023-02-12T22:09:22.762Z,16.58
2023-02-12T22:11:51.975Z,16.60
2023-02-12T22:14:20.615Z,15.10
2023-02-12T22:16:48.009Z,14.35
2023-02-12T22:19:15.211Z,15.65
2023-02-12T22:21:44.332Z,17.23
2023-02-12T22:24:15.537Z,16.10
2023-02-12T22:26:43.360Z,16.33
2023-02-12T22:29:14.686Z,15.57
2023-02-12T22:34:15.431Z,16.65
2023-02-12T22:36:46.542Z,15.52
2023-02-12T22:39:14.952Z,16.35
2023-02-12T22:41:42.596Z,15.60
2023-02-12T22:44:12.677Z,16.20
2023-02-12T22:46:40.935Z,16.65
2023-02-12T22:49:08.813Z,16.85
2023-02-12T22:51:36.967Z,14.68
2023-02-12T22:54:04.162Z,16.52
2023-02-12T22:56:31.043Z,16.92
2023-02-12T22:59:01.585Z,16.13
2023-02-12T23:01:29.869Z,16.25
2023-02-12T23:03:59.541Z,16.38
2023-02-12T23:06:30.868Z,15.80
2023-02-12T23:09:03.801Z,16.23
2023-02-12T23:11:33.204Z,16.70
2023-02-12T23:14:02.604Z,16.08
2023-02-12T23:16:29.677Z,16.50
2023-02-12T23:19:02.257Z,17.02
2023-02-12T23:21:32.322Z,16.63
2023-02-12T23:23:59.618Z,16.98
2023-02-12T23:26:28.367Z,17.83
2023-02-12T23:28:56.453Z,15.70
2023-02-12T23:31:24.196Z,16.00
2023-02-12T23:33:51.583Z,16.02
2023-02-12T23:36:18.451Z,17.40
2023-02-12T23:38:45.260Z,16.17
2023-02-12T23:41:12.340Z,16.23
2023-02-12T23:43:39.286Z,16.70
2023-02-12T23:46:06.300Z,16.25
2023-02-12T23:48:33.162Z,16.38
2023-02-12T23:51:00.226Z,16.25
2023-02-12T23:53:27.095Z,16.70
2023-02-12T23:55:53.986Z,16.80
2023-02-12T23:58:21.005Z,15.95
